Time;durP1;ratioP1;P1;durP2;ratioP2;P2;SDS_P1;SDS_P2;PMS_P1;PMS_P2;Temp;Humidity;BMP_temperature;BMP_pressure;BME280_temperature;BME280_humidity;BME280_pressure;Samples;Min_cycle;Max_cycle;Signal;HPM_P1;HPM_P2
2022/08/23 00:01:06;;;;;;;8.60;3.13;;;;;;;20.99;61.87;101392.13;4999380;28;20581;-54
2022/08/23 00:03:32;;;;;;;7.63;3.17;;;;;;;20.90;62.62;101387.84;5002708;28;20067;-54
2022/08/23 00:05:57;;;;;;;8.70;3.03;;;;;;;20.84;63.46;101386.13;5002162;28;20034;-54
2022/08/23 00:08:23;;;;;;;9.00;3.38;;;;;;;20.83;62.61;101389.63;5004981;28;20068;-54
2022/08/23 00:10:48;;;;;;;8.10;3.50;;;;;;;20.76;63.00;101385.31;5002352;28;20042;-54
2022/08/23 00:13:14;;;;;;;6.13;3.10;;;;;;;20.79;63.34;101381.78;5001347;28;20032;-52
2022/08/23 00:15:39;;;;;;;8.55;3.53;;;;;;;20.77;63.82;101383.56;5001872;28;20458;-54
2022/08/23 00:18:05;;;;;;;10.20;3.35;;;;;;;20.75;64.07;101380.97;5002365;28;20041;-54
2022/08/23 00:20:30;;;;;;;8.48;3.30;;;;;;;20.73;63.99;101382.69;5004096;28;20065;-54
2022/08/23 00:22:56;;;;;;;7.05;3.20;;;;;;;20.71;64.04;101373.16;5003056;28;20040;-52
2022/08/23 00:25:21;;;;;;;8.00;3.30;;;;;;;20.70;64.06;101376.63;4998301;28;20457;-52
2022/08/23 00:27:46;;;;;;;7.28;3.30;;;;;;;20.65;63.98;101374.03;5003624;28;20042;-54
2022/08/23 00:30:14;;;;;;;8.65;3.35;;;;;;;20.58;64.03;101382.78;4999843;28;20038;-55
2022/08/23 00:32:40;;;;;;;5.72;3.17;;;;;;;20.54;64.16;101371.47;5004614;28;20037;-53
2022/08/23 00:35:08;;;;;;;7.30;3.72;;;;;;;20.51;64.70;101379.34;5001026;28;20153;-54
2022/08/23 00:37:35;;;;;;;7.73;3.70;;;;;;;20.44;64.85;101369.75;5003136;28;20029;-54
2022/08/23 00:40:01;;;;;;;7.30;4.05;;;;;;;20.47;64.50;101375.00;4998980;28;20142;-54
2022/08/23 00:48:37;;;;;;;7.18;3.72;;;;;;;20.37;65.61;101381.09;5002234;28;20549;-52
2022/08/23 00:51:22;;;;;;;6.60;3.25;;;;;;;20.46;65.04;101380.25;5007819;28;20026;-54
2022/08/23 00:54:00;;;;;;;8.30;3.92;;;;;;;20.42;65.22;101381.94;5005282;28;20068;-54
2022/08/23 00:56:30;;;;;;;8.63;3.63;;;;;;;20.34;65.74;101386.34;5005081;28;20064;-54
2022/08/23 00:58:56;;;;;;;6.40;3.30;;;;;;;20.34;65.81;101382.00;4999143;28;20083;-53
2022/08/23 01:01:21;;;;;;;9.40;3.67;;;;;;;20.31;66.21;101379.38;5006193;28;20034;-55
2022/08/23 01:03:53;;;;;;;8.60;3.75;;;;;;;20.26;66.68;101394.22;5003961;28;20038;-54
2022/08/23 01:06:25;;;;;;;6.57;3.72;;;;;;;20.27;66.27;101388.13;5002144;28;20034;-54
2022/08/23 01:08:55;;;;;;;6.18;3.90;;;;;;;20.18;66.52;101388.13;5003231;28;20033;-53
2022/08/23 01:11:27;;;;;;;7.13;3.60;;;;;;;20.24;66.00;101389.84;5003345;28;20084;-54
2022/08/23 01:13:59;;;;;;;7.55;3.78;;;;;;;20.22;66.57;101389.00;5002012;28;20405;-53
2022/08/23 01:16:37;;;;;;;6.47;3.70;;;;;;;20.21;66.05;101388.13;5003140;28;20426;-54
2022/08/23 01:19:08;;;;;;;13.77;4.00;;;;;;;20.14;66.95;101377.69;5001456;28;20540;-54
2022/08/23 01:21:48;;;;;;;8.40;3.70;;;;;;;20.17;66.53;101386.41;5002153;28;20479;-53
2022/08/23 01:24:16;;;;;;;5.45;3.63;;;;;;;20.06;67.52;101382.94;5002815;28;20040;-53
2022/08/23 01:26:42;;;;;;;9.23;3.80;;;;;;;20.07;67.71;101382.06;5001282;28;20033;-53
2022/08/23 01:29:08;;;;;;;6.85;3.85;;;;;;;19.98;67.78;101387.34;5003700;28;20034;-54
2022/08/23 01:31:35;;;;;;;10.48;4.15;;;;;;;20.01;67.61;101389.91;5001947;28;20033;-53
2022/08/23 01:34:05;;;;;;;8.95;4.00;;;;;;;20.02;67.37;101386.44;5001809;28;20038;-54
2022/08/23 01:36:31;;;;;;;7.43;4.07;;;;;;;19.92;67.71;101388.22;5003409;28;20037;-53
2022/08/23 01:38:57;;;;;;;9.57;4.40;;;;;;;19.93;67.56;101378.63;5001675;28;20540;-54
2022/08/23 01:41:23;;;;;;;8.93;4.32;;;;;;;19.90;67.77;101387.34;5030552;28;20042;-54
2022/08/23 01:43:48;;;;;;;8.88;4.28;;;;;;;19.91;67.37;101376.03;5003166;28;20034;-54
2022/08/23 01:46:17;;;;;;;6.97;4.40;;;;;;;19.84;67.45;101387.38;4999320;28;20036;-54
2022/08/23 01:48:45;;;;;;;8.52;4.28;;;;;;;19.80;68.05;101386.50;5000283;28;20030;-54
2022/08/23 01:51:12;;;;;;;10.35;4.60;;;;;;;19.75;67.99;101390.84;4999917;28;20033;-54
2022/08/23 01:53:39;;;;;;;10.63;4.82;;;;;;;19.74;68.15;101385.63;4996023;28;20045;-53
2022/08/23 01:56:06;;;;;;;10.75;5.05;;;;;;;19.69;68.07;101384.75;5003909;28;20033;-53
2022/08/23 01:58:33;;;;;;;8.85;5.45;;;;;;;19.70;67.92;101387.38;5000984;28;20060;-53
2022/08/23 02:01:00;;;;;;;10.13;5.25;;;;;;;19.63;67.80;101387.38;4998170;28;20100;-54
2022/08/23 02:03:27;;;;;;;8.15;5.10;;;;;;;19.63;68.27;101388.25;5001237;28;20490;-54
2022/08/23 02:05:54;;;;;;;9.50;5.90;;;;;;;19.61;68.03;101387.38;5001469;28;20034;-53
2022/08/23 02:11:09;;;;;;;9.65;5.38;;;;;;;19.66;68.13;101397.84;5002398;28;20152;-54
2022/08/23 02:13:34;;;;;;;9.00;5.55;;;;;;;19.62;68.16;101398.69;5003650;28;20160;-54
2022/08/23 02:16:00;;;;;;;9.88;5.93;;;;;;;19.58;68.04;101402.13;5002182;28;20116;-54
2022/08/23 02:18:25;;;;;;;7.40;5.10;;;;;;;19.51;68.42;101403.88;5002728;28;20430;-54
2022/08/23 02:20:51;;;;;;;11.15;6.00;;;;;;;19.54;68.15;101401.28;4996928;28;20132;-53
2022/08/23 02:23:17;;;;;;;10.52;6.10;;;;;;;19.52;68.06;101395.16;4997361;28;20061;-54
2022/08/23 02:25:43;;;;;;;9.15;5.78;;;;;;;19.47;68.31;101396.91;5001828;28;20113;-55
2022/08/23 02:28:09;;;;;;;15.05;7.15;;;;;;;19.45;68.41;101398.66;5003337;28;20124;-54
2022/08/23 02:30:34;;;;;;;11.55;6.43;;;;;;;19.42;68.49;101393.47;4999107;28;20490;-54
2022/08/23 02:33:00;;;;;;;11.27;5.65;;;;;;;19.43;68.08;101395.19;4997618;28;21321;-54
2022/08/23 02:35:27;;;;;;;10.20;6.13;;;;;;;19.42;68.44;101398.66;5003184;28;20034;-54
2022/08/23 02:37:52;;;;;;;9.70;6.65;;;;;;;19.43;68.80;101400.41;4998923;28;20415;-54
2022/08/23 02:40:18;;;;;;;11.25;6.90;;;;;;;19.44;68.61;101405.63;5002600;28;20034;-54
2022/08/23 02:42:44;;;;;;;9.68;6.60;;;;;;;19.43;68.65;101401.28;5001144;28;20096;-54
2022/08/23 02:45:10;;;;;;;14.20;7.18;;;;;;;19.41;68.03;101408.19;5001563;28;20041;-54
2022/08/23 02:47:36;;;;;;;14.00;7.18;;;;;;;19.42;68.29;101404.75;5002924;28;20025;-54
2022/08/23 02:50:04;;;;;;;12.95;7.18;;;;;;;19.45;68.01;101402.13;4998287;28;20109;-53
2022/08/23 02:52:30;;;;;;;14.25;7.28;;;;;;;19.46;67.95;101403.00;4999077;28;20068;-54
2022/08/23 02:54:55;;;;;;;14.25;7.07;;;;;;;19.41;68.19;101404.72;5001888;28;20046;-53
2022/08/23 02:57:20;;;;;;;14.60;7.32;;;;;;;19.40;68.58;101408.22;5000466;28;20030;-54
2022/08/23 02:59:46;;;;;;;13.18;6.95;;;;;;;19.33;68.98;101409.94;5000452;28;20037;-54
2022/08/23 03:02:12;;;;;;;9.75;6.80;;;;;;;19.35;68.93;101408.19;4997375;28;20033;-52
2022/08/23 03:04:37;;;;;;;12.75;7.00;;;;;;;19.33;69.11;101414.28;4997826;28;20505;-54
2022/08/23 03:07:03;;;;;;;11.10;6.90;;;;;;;19.32;68.98;101417.78;4997634;28;20042;-54
2022/08/23 03:09:28;;;;;;;9.70;6.75;;;;;;;19.34;69.47;101423.84;4997622;28;20141;-54
2022/08/23 03:11:53;;;;;;;11.93;6.72;;;;;;;19.34;69.28;101427.34;4999001;28;20574;-52
2022/08/23 03:14:19;;;;;;;11.05;6.88;;;;;;;19.35;69.10;101420.38;4996725;28;20061;-54
2022/08/23 03:16:44;;;;;;;12.10;7.05;;;;;;;19.33;69.19;101424.72;5001932;28;20544;-54
2022/08/23 03:19:10;;;;;;;12.68;7.10;;;;;;;19.32;69.65;101423.88;5000181;28;20030;-54
2022/08/23 03:21:37;;;;;;;10.82;6.57;;;;;;;19.35;69.00;101428.19;4997181;28;20034;-54
2022/08/23 03:24:02;;;;;;;14.30;6.63;;;;;;;19.32;69.31;101429.06;4997336;28;20033;-54
2022/08/23 03:26:28;;;;;;;12.07;6.55;;;;;;;19.38;69.38;101423.00;4998848;28;20034;-54
2022/08/23 03:28:54;;;;;;;13.32;7.55;;;;;;;19.38;69.31;101436.03;5000040;28;20447;-54
2022/08/23 03:31:19;;;;;;;11.02;6.70;;;;;;;19.38;69.75;101434.28;5000788;28;20088;-52
2022/08/23 03:33:44;;;;;;;10.38;6.97;;;;;;;19.40;69.39;101434.28;5001508;28;20041;-54
2022/08/23 03:36:11;;;;;;;10.57;6.88;;;;;;;19.42;69.21;101432.56;5002943;28;20475;-54
2022/08/23 03:38:38;;;;;;;10.20;7.00;;;;;;;19.36;69.95;101425.63;5003843;28;20104;-54
2022/08/23 03:41:05;;;;;;;10.73;6.75;;;;;;;19.37;69.94;101436.91;5005251;28;20573;-53
2022/08/23 03:43:30;;;;;;;14.10;7.00;;;;;;;19.37;69.88;101442.13;5002776;28;20037;-54
2022/08/23 03:45:56;;;;;;;10.85;6.68;;;;;;;19.35;69.98;101436.88;5006950;28;20056;-54
2022/08/23 03:48:23;;;;;;;10.65;6.97;;;;;;;19.39;70.23;101435.16;5003758;28;20052;-54
2022/08/23 03:50:49;;;;;;;11.27;7.05;;;;;;;19.39;69.65;101430.81;5003012;28;20057;-54
2022/08/23 03:53:15;;;;;;;10.85;7.03;;;;;;;19.40;69.78;101437.75;5000437;28;20089;-54
2022/08/23 03:55:41;;;;;;;10.50;6.80;;;;;;;19.38;70.26;101433.44;5007882;28;20030;-54
2022/08/23 03:58:07;;;;;;;11.80;7.30;;;;;;;19.39;70.32;101435.16;5008080;28;20387;-55
2022/08/23 04:00:33;;;;;;;12.70;7.63;;;;;;;19.40;70.18;101426.47;5008356;28;20037;-54
2022/08/23 04:02:58;;;;;;;11.80;7.57;;;;;;;19.37;70.33;101436.91;5002632;28;20036;-54
2022/08/23 04:05:23;;;;;;;12.02;7.72;;;;;;;19.38;69.90;101428.22;5003370;28;20076;-54
2022/08/23 04:07:49;;;;;;;12.93;7.55;;;;;;;19.33;70.15;101435.16;5000895;28;20030;-54
2022/08/23 04:10:14;;;;;;;10.35;7.32;;;;;;;19.38;70.57;101430.81;5004666;28;20403;-54
2022/08/23 04:12:41;;;;;;;13.15;7.90;;;;;;;19.34;70.20;101432.53;5007128;28;20030;-53
2022/08/23 04:15:07;;;;;;;11.32;7.93;;;;;;;19.33;70.13;101435.16;5005217;28;20095;-54
2022/08/23 04:17:33;;;;;;;13.95;8.00;;;;;;;19.33;69.91;101432.56;5006437;28;20112;-54
2022/08/23 04:19:58;;;;;;;11.93;7.80;;;;;;;19.34;70.40;101444.72;5007144;28;20128;-54
2022/08/23 04:22:23;;;;;;;12.85;8.07;;;;;;;19.36;70.11;101440.41;5004502;28;20390;-54
2022/08/23 04:24:49;;;;;;;14.43;8.20;;;;;;;19.34;70.40;101442.09;5002143;28;20034;-54
2022/08/23 04:27:15;;;;;;;10.68;7.70;;;;;;;19.31;70.47;101439.50;5005245;28;20057;-54
2022/08/23 04:29:40;;;;;;;17.83;8.10;;;;;;;19.33;70.10;101442.97;5008114;28;20029;-54
2022/08/23 04:32:08;;;;;;;13.45;7.80;;;;;;;19.33;70.88;101446.47;5003300;28;20033;-53
2022/08/23 04:34:34;;;;;;;12.77;8.05;;;;;;;19.32;70.51;101443.84;5004178;28;20092;-54
2022/08/23 04:37:00;;;;;;;12.95;7.75;;;;;;;19.32;70.92;101444.72;5005472;28;20034;-53
2022/08/23 04:39:27;;;;;;;14.07;7.70;;;;;;;19.29;71.05;101445.59;5000212;28;20069;-55
2022/08/23 04:44:36;;;;;;;11.05;8.10;;;;;;;19.31;70.37;101448.19;5007688;28;20097;-53
2022/08/23 04:47:02;;;;;;;11.85;7.82;;;;;;;19.28;70.75;101445.56;5004950;28;20038;-54
2022/08/23 04:49:27;;;;;;;13.60;7.93;;;;;;;19.30;71.20;101451.69;5004017;28;20088;-54
2022/08/23 04:51:53;;;;;;;18.17;8.48;;;;;;;19.29;71.38;101445.59;5006296;28;20442;-53
2022/08/23 04:54:18;;;;;;;14.23;7.70;;;;;;;19.26;71.50;101450.78;5003025;28;20115;-52
2022/08/23 04:56:44;;;;;;;13.05;7.80;;;;;;;19.25;70.41;101456.88;4997582;28;20087;-54
2022/08/23 04:59:10;;;;;;;10.18;7.43;;;;;;;19.25;71.13;101467.31;5000249;28;20034;-54
2022/08/23 05:01:35;;;;;;;12.55;8.23;;;;;;;19.25;70.67;101467.31;5001148;28;20464;-57
2022/08/23 05:04:01;;;;;;;10.65;7.43;;;;;;;19.26;71.14;101453.41;5002075;28;20100;-54
2022/08/23 05:06:28;;;;;;;11.65;7.75;;;;;;;19.27;71.60;101464.69;5002533;28;20026;-53
2022/08/23 05:08:54;;;;;;;13.32;8.13;;;;;;;19.24;71.91;101462.97;4999038;28;20093;-54
2022/08/23 05:11:19;;;;;;;13.50;7.70;;;;;;;19.27;72.53;101462.97;5001261;28;20034;-53
2022/08/23 05:13:45;;;;;;;12.20;7.90;;;;;;;19.27;72.70;101467.31;5003259;28;20045;-52
2022/08/23 05:16:11;;;;;;;10.30;7.18;;;;;;;19.25;73.02;101463.84;4999242;28;20021;-53
2022/08/23 05:18:37;;;;;;;13.18;7.03;;;;;;;19.24;72.62;101460.38;5003947;28;20038;-53
2022/08/23 05:21:03;;;;;;;11.70;7.40;;;;;;;19.29;72.92;101463.84;5001024;28;20262;-53
2022/08/23 05:23:28;;;;;;;12.07;7.43;;;;;;;19.29;73.02;101456.03;5002389;28;20029;-53
2022/08/23 05:25:54;;;;;;;12.77;7.88;;;;;;;19.30;72.94;101462.13;5004413;28;20034;-53
2022/08/23 05:28:24;;;;;;;10.68;7.10;;;;;;;19.32;72.67;101456.91;5000223;28;20061;-53
2022/08/23 05:31:03;;;;;;;11.68;7.28;;;;;;;19.35;72.29;101460.34;5001167;28;20489;-54
2022/08/23 05:33:31;;;;;;;10.40;7.07;;;;;;;19.32;73.58;101472.53;5001587;28;20493;-54
2022/08/23 05:35:56;;;;;;;15.27;7.35;;;;;;;19.34;73.70;101468.19;5003833;28;20034;-54
2022/08/23 05:38:23;;;;;;;12.45;7.55;;;;;;;19.29;74.26;101479.50;4998841;28;20053;-54
2022/08/23 05:40:54;;;;;;;12.27;7.80;;;;;;;19.34;73.85;101479.47;5001113;28;20858;-54
2022/08/23 05:43:20;;;;;;;15.30;8.23;;;;;;;19.31;73.90;101484.72;5001831;28;20441;-54
2022/08/23 05:45:46;;;;;;;14.32;7.40;;;;;;;19.37;73.80;101482.09;5001661;28;20144;-54
2022/08/23 05:48:14;;;;;;;11.27;7.20;;;;;;;19.36;74.23;101492.53;5005431;28;20514;-53
2022/08/23 05:50:40;;;;;;;11.85;7.70;;;;;;;19.37;74.20;101499.50;5002405;28;20079;-53
2022/08/23 05:53:08;;;;;;;14.98;7.75;;;;;;;19.39;74.35;101505.56;5001629;28;20465;-53
2022/08/23 05:55:34;;;;;;;10.82;8.05;;;;;;;19.40;74.38;101504.69;5004138;28;20069;-54
2022/08/23 05:57:59;;;;;;;12.57;7.72;;;;;;;19.41;74.46;101509.91;5003878;28;20034;-53
2022/08/23 06:00:25;;;;;;;12.25;8.20;;;;;;;19.41;74.42;101507.31;5004007;28;20022;-54
2022/08/23 06:02:51;;;;;;;11.48;8.07;;;;;;;19.48;74.89;101505.59;4998807;28;20065;-53
2022/08/23 06:05:16;;;;;;;9.63;8.52;;;;;;;19.48;75.21;101503.00;5000167;28;20101;-54
2022/08/23 06:07:42;;;;;;;13.50;8.38;;;;;;;19.47;75.20;101511.66;5001061;28;20390;-53
2022/08/23 06:10:08;;;;;;;13.98;8.73;;;;;;;19.48;74.56;101509.09;5006057;28;20022;-53
2022/08/23 06:12:34;;;;;;;14.70;9.23;;;;;;;19.53;75.29;101516.91;5004905;28;20116;-53
2022/08/23 06:15:00;;;;;;;14.00;9.63;;;;;;;19.51;74.62;101513.41;5014933;28;20482;-54
2022/08/23 06:17:27;;;;;;;13.52;9.32;;;;;;;19.52;74.77;101515.16;5002399;28;20663;-52
2022/08/23 06:19:52;;;;;;;15.27;9.15;;;;;;;19.57;74.47;101513.44;5002973;28;20034;-54
2022/08/23 06:22:18;;;;;;;13.05;10.02;;;;;;;19.55;74.46;101512.56;5002222;28;20402;-54
2022/08/23 06:24:43;;;;;;;17.02;10.30;;;;;;;19.59;73.99;101518.69;5005246;28;20482;-53
2022/08/23 06:27:10;;;;;;;21.30;10.77;;;;;;;19.60;74.31;101510.00;5004344;28;20124;-54
2022/08/23 06:29:37;;;;;;;22.52;10.95;;;;;;;19.60;74.01;101516.09;5002957;28;20026;-54
2022/08/23 06:32:03;;;;;;;24.65;11.40;;;;;;;19.58;73.89;101509.97;5001227;28;20592;-54
2022/08/23 06:34:33;;;;;;;21.67;11.45;;;;;;;19.62;73.46;101522.16;5000310;28;20104;-53
2022/08/23 06:37:10;;;;;;;28.92;11.90;;;;;;;19.64;73.49;101519.56;5003980;28;20689;-54
2022/08/23 06:39:37;;;;;;;21.33;12.90;;;;;;;19.66;72.61;101515.22;5000345;28;20025;-53
2022/08/23 06:42:09;;;;;;;26.75;13.75;;;;;;;19.67;72.77;101524.78;5005256;28;20117;-52
2022/08/23 06:44:35;;;;;;;22.48;13.65;;;;;;;19.66;72.97;101521.31;5004375;28;20479;-54
2022/08/23 06:47:02;;;;;;;21.63;13.32;;;;;;;19.76;72.72;101532.63;5002381;28;20032;-53
2022/08/23 06:49:27;;;;;;;25.67;13.23;;;;;;;19.78;74.20;101526.56;5004052;28;20030;-52
2022/08/23 06:51:55;;;;;;;22.42;13.35;;;;;;;19.87;74.75;101522.19;5001415;28;20076;-54
2022/08/23 06:54:24;;;;;;;27.20;13.38;;;;;;;19.95;74.97;101526.53;5003315;28;20037;-54
2022/08/23 06:56:50;;;;;;;24.23;14.30;;;;;;;20.03;74.26;101527.41;4999395;28;20042;-53
2022/08/23 06:59:16;;;;;;;25.20;15.35;;;;;;;20.14;72.66;101527.38;5002094;28;20051;-54
2022/08/23 07:01:46;;;;;;;22.95;14.88;;;;;;;20.27;72.10;101531.75;5006359;28;20038;-54
2022/08/23 07:04:15;;;;;;;22.50;15.63;;;;;;;20.35;72.56;101524.75;5002176;28;20076;-54
2022/08/23 07:06:41;;;;;;;23.05;15.43;;;;;;;20.53;71.65;101518.66;5007086;28;20028;-53
2022/08/23 07:09:07;;;;;;;22.48;14.82;;;;;;;20.62;69.57;101516.00;5004472;28;20030;-52
2022/08/23 07:11:33;;;;;;;23.27;15.75;;;;;;;20.75;68.99;101516.88;5014558;28;20041;-53
2022/08/23 07:13:59;;;;;;;21.27;14.77;;;;;;;20.85;68.70;101517.69;4999364;28;20367;-54
2022/08/23 07:16:33;;;;;;;20.88;13.90;;;;;;;20.93;68.39;101515.03;5003814;28;20030;-54
2022/08/23 07:18:58;;;;;;;21.40;14.50;;;;;;;21.05;68.24;101522.81;5005548;28;20041;-53
2022/08/23 07:21:23;;;;;;;19.48;13.88;;;;;;;21.15;67.93;101529.75;5004928;28;20072;-54
2022/08/23 07:23:49;;;;;;;18.90;14.30;;;;;;;21.27;68.31;101520.97;5007425;28;20100;-54
2022/08/23 07:26:16;;;;;;;20.17;13.65;;;;;;;21.40;68.09;101528.75;5001829;28;20053;-54
2022/08/23 07:28:41;;;;;;;23.67;15.02;;;;;;;21.47;67.80;101536.56;5004836;28;20026;-54
2022/08/23 07:31:14;;;;;;;22.33;14.77;;;;;;;21.60;67.80;101540.88;5000003;28;20083;-53
2022/08/23 07:33:41;;;;;;;22.15;14.70;;;;;;;21.68;67.23;101536.44;5005363;28;20033;-54
2022/08/23 07:36:07;;;;;;;20.35;14.77;;;;;;;21.79;67.67;101534.63;4996122;28;20472;-53
2022/08/23 07:38:34;;;;;;;20.73;14.15;;;;;;;21.86;67.83;101540.69;4998877;28;20030;-54
2022/08/23 07:41:00;;;;;;;19.30;14.02;;;;;;;21.91;67.17;101538.91;4998164;28;20029;-54
2022/08/23 07:43:25;;;;;;;19.08;13.73;;;;;;;22.05;66.57;101541.41;5015723;28;20026;-54
2022/08/23 07:45:51;;;;;;;17.90;13.25;;;;;;;22.16;65.80;101536.97;4998876;28;20402;-53
2022/08/23 07:48:16;;;;;;;22.25;14.43;;;;;;;22.23;66.59;101545.63;5004569;28;20022;-55
2022/08/23 07:50:41;;;;;;;17.17;13.80;;;;;;;22.33;65.48;101553.41;5002105;28;20100;-53
2022/08/23 07:53:07;;;;;;;19.27;13.35;;;;;;;22.36;65.31;101545.50;4992768;28;20082;-52
2022/08/23 07:55:33;;;;;;;18.20;12.95;;;;;;;22.47;64.06;101548.88;5002893;28;20034;-53
2022/08/23 07:57:59;;;;;;;21.17;13.48;;;;;;;22.53;64.54;101552.34;5005562;28;20038;-53
2022/08/23 08:00:25;;;;;;;17.13;12.57;;;;;;;22.57;63.68;101552.28;5001214;28;20034;-54
2022/08/23 08:02:50;;;;;;;18.90;12.27;;;;;;;22.68;63.39;101558.25;4995615;28;20046;-54
2022/08/23 08:05:16;;;;;;;19.88;12.30;;;;;;;22.79;63.36;101554.66;5000791;28;20033;-54
2022/08/23 08:07:42;;;;;;;17.33;12.90;;;;;;;;;;5002511;28;20092;-53
2022/08/23 08:10:07;;;;;;;17.92;12.63;;;;;;;22.88;62.76;101558.09;5004571;28;20528;-54
2022/08/23 08:12:33;;;;;;;19.88;12.10;;;;;;;22.98;61.03;101561.44;5001228;28;20034;-54
2022/08/23 08:14:58;;;;;;;19.25;12.85;;;;;;;23.03;62.70;101567.50;5003565;28;20391;-53
2022/08/23 08:17:24;;;;;;;22.38;13.25;;;;;;;23.10;62.03;101565.69;5001001;28;20068;-53
2022/08/23 08:19:49;;;;;;;17.77;12.60;;;;;;;23.19;62.26;101566.44;4997019;28;20180;-54
2022/08/23 08:22:14;;;;;;;18.70;12.63;;;;;;;23.27;62.27;101569.81;5002079;28;20076;-53
2022/08/23 08:24:40;;;;;;;19.48;14.10;;;;;;;23.29;62.98;101568.03;5005646;28;20026;-52
2022/08/23 08:27:06;;;;;;;19.48;12.85;;;;;;;23.41;61.64;101561.75;5002133;28;20033;-53
2022/08/23 08:29:32;;;;;;;19.05;13.45;;;;;;;23.40;63.66;101567.03;5001883;28;20033;-53
2022/08/23 08:31:57;;;;;;;19.50;13.43;;;;;;;23.45;63.76;101562.59;4993666;28;20029;-54
2022/08/23 08:34:23;;;;;;;21.08;13.77;;;;;;;23.57;62.94;101566.81;5000654;28;20042;-54
2022/08/23 08:36:52;;;;;;;16.65;14.00;;;;;;;23.68;63.16;101564.91;5003235;28;20410;-52
2022/08/23 08:39:29;;;;;;;21.42;14.18;;;;;;;23.83;62.97;101567.28;5002968;28;20026;-53
2022/08/23 08:42:16;;;;;;;21.17;13.80;;;;;;;23.87;63.28;101576.88;5008635;28;20037;-54
2022/08/23 08:44:45;;;;;;;20.10;12.57;;;;;;;24.01;60.67;101572.25;5006363;28;20084;-55
2022/08/23 08:47:30;;;;;;;;;;;;;;;24.03;61.50;101573.13;5005299;28;20097;-54
2022/08/23 08:50:08;;;;;;;19.77;12.95;;;;;;;24.07;61.17;101577.41;5002913;28;19924;-54
2022/08/23 08:52:46;;;;;;;17.08;11.30;;;;;;;24.17;61.12;101580.75;5004226;28;20510;-53
2022/08/23 08:55:21;;;;;;;17.67;12.50;;;;;;;24.27;61.14;101584.97;5003288;28;20057;-53
2022/08/23 08:57:51;;;;;;;18.83;11.30;;;;;;;24.29;60.89;101584.94;5005076;28;20384;-54
2022/08/23 09:00:20;;;;;;;17.33;10.82;;;;;;;24.44;60.68;101582.06;4999161;28;20138;-53
2022/08/23 09:02:45;;;;;;;15.68;10.13;;;;;;;24.45;60.77;101589.06;4999463;28;20120;-52
2022/08/23 09:05:33;;;;;;;17.65;10.90;;;;;;;24.50;60.61;101589.84;5000398;28;20125;-52
2022/08/23 09:08:32;;;;;;;16.05;10.32;;;;;;;24.52;60.36;101585.44;4996396;28;20032;-54
2022/08/23 09:11:30;;;;;;;17.30;9.48;;;;;;;24.60;60.29;101588.78;4997810;28;20049;-54
2022/08/23 09:14:05;;;;;;;17.63;9.90;;;;;;;24.59;60.12;101587.06;5000920;28;20034;-54
2022/08/23 09:16:48;;;;;;;17.95;9.27;;;;;;;24.75;60.66;101590.25;5016247;28;20093;-53
2022/08/23 09:19:14;;;;;;;13.60;8.63;;;;;;;24.89;59.32;101590.00;4998357;28;20037;-53
2022/08/23 09:21:53;;;;;;;14.45;8.75;;;;;;;24.96;59.04;101588.97;5001536;28;20037;-53
2022/08/23 09:24:18;;;;;;;17.05;9.43;;;;;;;24.97;58.91;101595.09;5000682;28;20032;-54
2022/08/23 09:26:44;;;;;;;16.63;8.02;;;;;;;25.08;58.63;101587.88;5000284;28;20752;-54
2022/08/23 09:29:26;;;;;;;16.33;7.88;;;;;;;25.16;58.87;101585.09;4990320;28;20036;-54
2022/08/23 09:32:01;;;;;;;13.05;6.45;;;;;;;25.21;57.59;101588.50;4995454;28;20472;-53
2022/08/23 09:34:29;;;;;;;11.63;5.75;;;;;;;25.24;58.27;101580.50;4996993;28;21708;-53
2022/08/23 09:37:07;;;;;;;11.68;5.38;;;;;;;25.33;56.90;101589.09;4998785;28;20064;-53
2022/08/23 09:39:36;;;;;;;10.23;4.72;;;;;;;25.41;56.65;101597.69;4991794;28;20259;-54
2022/08/23 09:42:02;;;;;;;14.18;5.80;;;;;;;25.49;56.46;101587.00;4992335;28;20030;-53
2022/08/23 09:44:38;;;;;;;10.18;4.70;;;;;;;25.58;55.62;101599.09;4992765;28;20026;-53
2022/08/23 09:47:15;;;;;;;15.30;4.47;;;;;;;25.55;55.60;101596.53;5000268;28;20053;-53
2022/08/23 09:49:43;;;;;;;10.85;4.47;;;;;;;25.68;54.48;101588.31;5001847;28;20506;-54
2022/08/23 09:52:24;;;;;;;13.13;4.50;;;;;;;25.77;55.31;101595.16;5001498;28;20368;-54
2022/08/23 09:54:59;;;;;;;9.55;4.32;;;;;;;25.82;54.54;101587.16;5003119;28;20049;-53
2022/08/23 09:57:28;;;;;;;8.20;4.20;;;;;;;25.83;54.13;101583.59;5033816;28;20556;-54
2022/08/23 09:59:56;;;;;;;12.05;3.78;;;;;;;25.96;54.60;101585.03;5002645;28;20454;-54
2022/08/23 10:02:29;;;;;;;10.90;4.25;;;;;;;26.01;53.98;101577.88;5002520;28;20041;-54
2022/08/23 10:05:05;;;;;;;11.15;4.25;;;;;;;26.06;53.37;101575.16;5001387;28;20037;-54
2022/08/23 10:07:40;;;;;;;11.00;4.53;;;;;;;26.15;52.66;101577.56;5000054;28;20554;-54
2022/08/23 10:10:31;;;;;;;8.77;3.75;;;;;;;26.28;52.59;101578.97;5001760;28;20115;-53
2022/08/23 10:12:57;;;;;;;11.75;4.30;;;;;;;26.30;52.42;101578.94;4997891;28;20034;-53
2022/08/23 10:15:48;;;;;;;9.93;3.75;;;;;;;26.38;52.56;101574.31;5001816;28;20029;-54
2022/08/23 10:18:38;;;;;;;13.93;3.90;;;;;;;26.45;52.97;101568.88;5000584;28;20406;-54
2022/08/23 10:21:17;;;;;;;8.88;3.13;;;;;;;26.54;52.12;101567.75;5001327;28;20084;-54
2022/08/23 10:24:10;;;;;;;10.18;2.90;;;;;;;26.66;52.44;101571.84;5003089;28;20022;-54
2022/08/23 10:26:42;;;;;;;11.20;2.90;;;;;;;26.80;51.96;101574.94;5001326;28;20387;-54
2022/08/23 10:29:36;;;;;;;8.80;2.65;;;;;;;26.90;51.28;101580.84;4999667;28;20569;-52
2022/08/23 10:32:30;;;;;;;7.18;2.60;;;;;;;26.98;51.00;101571.78;4999727;28;20025;-54
2022/08/23 10:35:25;;;;;;;7.60;2.80;;;;;;;27.12;51.08;101576.72;5001893;28;21080;-53
2022/08/23 10:37:56;;;;;;;6.82;2.53;;;;;;;27.20;49.63;101579.97;4999034;28;20038;-53
2022/08/23 10:40:27;;;;;;;8.73;2.88;;;;;;;27.34;48.38;101569.00;5002960;28;20041;-54
2022/08/23 10:42:58;;;;;;;7.57;2.70;;;;;;;27.48;48.22;101572.09;5000433;28;20084;-54
2022/08/23 10:45:28;;;;;;;7.50;2.67;;;;;;;27.55;48.36;101567.47;4999097;28;20033;-54
2022/08/23 10:48:12;;;;;;;7.10;2.50;;;;;;;27.72;48.80;101565.16;5000841;28;20056;-54
2022/08/23 10:50:50;;;;;;;5.88;2.60;;;;;;;27.85;48.79;101567.41;4997519;28;20036;-54
2022/08/23 10:53:17;;;;;;;8.88;3.28;;;;;;;27.90;46.30;101571.63;5000172;28;20045;-54
2022/08/23 10:56:04;;;;;;;7.93;2.30;;;;;;;28.05;47.25;101565.84;5004672;28;20036;-54
2022/08/23 10:58:53;;;;;;;7.20;2.70;;;;;;;28.25;48.17;101557.25;5000212;28;20044;-53
2022/08/23 11:01:22;;;;;;;8.13;2.80;;;;;;;28.31;46.31;101556.16;5001922;28;20503;-54
2022/08/23 11:04:05;;;;;;;7.20;2.80;;;;;;;28.45;46.49;101561.84;5000680;28;20033;-54
2022/08/23 11:06:36;;;;;;;8.98;2.40;;;;;;;28.58;45.79;101559.66;4992116;28;20065;-55
2022/08/23 11:09:29;;;;;;;6.75;2.40;;;;;;;28.66;45.86;101556.72;4998419;28;20083;-53
2022/08/23 11:12:20;;;;;;;6.75;2.50;;;;;;;28.80;46.35;101554.44;4992381;28;20049;-54
2022/08/23 11:14:55;;;;;;;6.65;2.25;;;;;;;28.86;45.07;101543.63;4993130;28;20434;-53
2022/08/23 11:17:48;;;;;;;4.22;2.03;;;;;;;29.08;44.85;101541.91;4996183;28;20034;-54
2022/08/23 11:20:48;;;;;;;7.28;2.33;;;;;;;29.28;44.58;101551.72;5000467;28;20026;-53
2022/08/23 11:23:35;;;;;;;9.93;2.67;;;;;;;29.37;44.62;101550.53;4993550;28;20494;-53
2022/08/23 11:26:02;;;;;;;7.25;2.30;;;;;;;29.46;43.37;101549.28;4992465;28;20034;-53
2022/08/23 11:28:28;;;;;;;7.45;2.42;;;;;;;29.60;43.10;101557.56;4993435;28;20038;-53
2022/08/23 11:30:56;;;;;;;6.85;2.42;;;;;;;29.78;42.87;101555.97;4988402;28;20411;-54
2022/08/23 11:33:33;;;;;;;7.03;2.05;;;;;;;29.90;42.40;101545.69;4988520;28;20030;-53
2022/08/23 11:36:07;;;;;;;8.18;2.42;;;;;;;30.02;42.33;101554.94;4990259;28;20537;-53
2022/08/23 11:38:42;;;;;;;8.63;1.85;;;;;;;30.05;42.41;101556.59;4993168;28;20429;-57
2022/08/23 11:41:17;;;;;;;5.05;1.90;;;;;;;29.99;42.29;101555.06;4989262;28;20022;-55